No requiere especial atencion con respecto al clima.   -   No hay Alarmas

Informes de METAR cercanos

 

LEXJ - Santander/Parayas, Spain
Distance from station: ESE 6km
Actualización: 23/05/2018 22:30
Parcialmente nuboso
Parcialmente nuboso
 Viento del NNE
Viento: NNE 6 km/h
Temperatura: 18°C
Rocío: 18°C
Humedad: 100%
Barómetro: 1017 hPa
Clouds: Parcialmente nuboso
Visibility: 8 km
2018/05/23 20:30 LEXJ 232030Z 03003KT 350V080 8000 NSC 18/18 Q1017
LEBB - Bilbao/Sondica, Spain
Distance from station: ESE 80km
Actualización: 23/05/2018 22:30
Few Clouds
Few Clouds
 Viento del O
Viento: O 7 km/h
Temperatura: 18°C
Rocío: 16°C
Humedad: 88%
Barómetro: 1016 hPa
Clouds: Few Clouds
Visibility: 10 km
Cloud details: Few Clouds 1524 m
2018/05/23 20:30 LEBB 232030Z 28004KT 240V300 9999 FEW050 18/16 Q1016 NOSIG
 
LEBL - Barcelona Airpor, Spain
Distance from station: ESE 726km
Actualización: 23/05/2018 22:30
Few Clouds
Few Clouds
 Viento del SO
Viento: SO 13 km/h
Temperatura: 19°C
Rocío: 17°C
Humedad: 88%
Barómetro: 1018 hPa
Clouds: Few Clouds
Visibility: 10 km
Cloud details: Few Clouds 457 m
2018/05/23 20:30 LEBL 232030Z 23007KT 9999 FEW015 19/17 Q1018 NOSIG
LEMD - Madrid/Barajas, Spain
Distance from station: S 325km
Actualización: 23/05/2018 22:30
Parcialmente nuboso
Parcialmente nuboso
 Viento del NNO
Viento: NNO 9 km/h
Temperatura: 18°C
Rocío: 15°C
Humedad: 83%
Barómetro: 1015 hPa
Clouds: Parcialmente nuboso
Visibility: 10 km
Cloud details: Parcialmente nuboso 2286 m
2018/05/23 20:30 LEMD 232030Z 34005KT 9999 SCT075 18/15 Q1015 NOSIG
 
LPPT - Lisbon/Portela, Portugal
Distance from station: SO 663km
Actualización: 23/05/2018 22:30
Few Clouds
Few Clouds
 Viento del NNO
Viento: NNO 9 km/h
Temperatura: 16°C
Rocío: 12°C
Humedad: 77%
Barómetro: 1015 hPa
Clouds: Few Clouds
Visibility: 10 km
Cloud details: Few Clouds 457 m
2018/05/23 20:30 LPPT 232030Z 33005KT 280V350 9999 FEW015 16/12 Q1015
LECO - La Coruna/Alvedr, Spain
Distance from station: O 349km
Actualización: 23/05/2018 22:30
Few Clouds
Few Clouds
 Viento del N
Viento: N 6 km/h
Temperatura: 19°C
Rocío: 14°C
Humedad: 73%
Barómetro: 1015 hPa
Clouds: Few Clouds
Visibility: 10 km
Cloud details: Few Clouds 1219 m
2018/05/23 20:30 LECO 232030Z 01003KT 340V040 9999 FEW040 19/14 Q1015 NOSIG
 
LEST - Santiago/Labacol, Spain
Distance from station: O 358km
Actualización: 23/05/2018 22:30
Few Clouds
Few Clouds
 Viento del varies
Viento: varies 4 km/h
Temperatura: 17°C
Rocío: 13°C
Humedad: 77%
Barómetro: 1016 hPa
Clouds: Few Clouds
Visibility: 10 km
Cloud details: Few Clouds 914 m
2018/05/23 20:30 LEST 232030Z VRB02KT 9999 FEW030 17/13 Q1016 NOSIG
EBBR - Brussels International Airport, Belgium
Distance from station: O 1339km
Actualización: 23/05/2018 22:20
Nearby thunderstorm, Few clouds
Nearby thunderstorm, Few clouds
 Viento del N
Viento: N 4 km/h
Temperatura: 18°C
Rocío: 17°C
Humedad: 94%
Barómetro: 1019 hPa
Resumen: Nearby Thunderstorm
Clouds: Few Clouds
Visibility: 10 km
Cloud details: Few Clouds 1829 m
2018/05/23 20:20 EBBR 232020Z 35002KT 9999 VCTS FEW060CB 18/17 Q1019 NOSIG